createdAt,value
2023-12-15T00:00:03.262Z,30.98
2023-12-15T00:03:24.330Z,30.85
2023-12-15T00:06:32.714Z,36.10
2023-12-15T00:09:36.484Z,30.13
2023-12-15T00:12:49.993Z,32.65
2023-12-15T00:16:00.909Z,32.78
2023-12-15T00:19:24.447Z,33.40
2023-12-15T00:22:38.140Z,34.00
2023-12-15T00:25:42.087Z,35.93
2023-12-15T00:28:49.648Z,36.35
2023-12-15T00:31:59.752Z,37.75
2023-12-15T00:35:13.226Z,36.35
2023-12-15T00:38:23.401Z,36.60
2023-12-15T00:41:31.486Z,35.10
2023-12-15T00:44:53.973Z,38.53
2023-12-15T00:48:10.943Z,36.60
2023-12-15T00:51:36.701Z,38.25
2023-12-15T00:54:58.986Z,38.20
2023-12-15T00:58:19.307Z,34.97
2023-12-15T01:01:41.961Z,35.53
2023-12-15T01:05:05.278Z,36.53
2023-12-15T01:08:25.731Z,35.90
2023-12-15T01:11:49.047Z,37.30
2023-12-15T01:15:11.937Z,36.17
2023-12-15T01:18:28.306Z,34.83
2023-12-15T01:21:45.066Z,36.80
2023-12-15T01:25:18.949Z,37.47
2023-12-15T01:28:40.915Z,36.43
2023-12-15T01:32:04.194Z,34.27
2023-12-15T01:35:27.056Z,34.00
2023-12-15T01:38:47.963Z,36.95
2023-12-15T01:42:11.003Z,34.72
2023-12-15T01:45:32.995Z,37.77
2023-12-15T01:48:55.248Z,37.17
2023-12-15T01:52:18.096Z,35.83
2023-12-15T01:55:40.127Z,37.47
2023-12-15T01:58:56.089Z,35.40
2023-12-15T02:02:16.008Z,40.50
2023-12-15T02:05:42.008Z,38.73
2023-12-15T02:08:56.399Z,40.10
2023-12-15T02:12:16.876Z,36.85
2023-12-15T02:15:42.121Z,36.33
2023-12-15T02:18:52.419Z,36.80
2023-12-15T02:22:16.042Z,38.03
2023-12-15T02:25:39.843Z,35.97
2023-12-15T02:28:43.077Z,32.92
2023-12-15T02:31:47.272Z,30.95
2023-12-15T02:35:04.628Z,32.17
2023-12-15T02:38:09.102Z,32.30
2023-12-15T02:41:31.837Z,32.53
2023-12-15T02:44:44.448Z,30.52
2023-12-15T02:47:48.643Z,29.77
2023-12-15T02:50:55.321Z,27.27
2023-12-15T02:54:05.815Z,28.73
2023-12-15T02:57:09.223Z,25.83
2023-12-15T03:00:23.941Z,28.27
2023-12-15T03:03:48.545Z,28.17
2023-12-15T03:06:51.856Z,27.43
2023-12-15T03:09:54.864Z,25.77
2023-12-15T03:13:05.198Z,25.20
2023-12-15T03:16:12.469Z,24.88
2023-12-15T03:19:19.301Z,22.65
2023-12-15T03:22:23.176Z,22.40
2023-12-15T03:25:34.784Z,21.07
2023-12-15T03:28:59.061Z,23.15
2023-12-15T03:32:15.607Z,24.42
2023-12-15T03:35:32.612Z,21.95
2023-12-15T03:38:53.507Z,22.17
2023-12-15T03:42:16.627Z,23.53
2023-12-15T03:45:40.177Z,24.15
2023-12-15T03:49:00.906Z,25.90
2023-12-15T03:52:19.716Z,25.55
2023-12-15T03:55:42.786Z,24.70
2023-12-15T03:59:04.845Z,27.73
2023-12-15T04:02:27.710Z,25.42
2023-12-15T04:05:47.755Z,25.92
2023-12-15T04:08:51.189Z,25.70
2023-12-15T04:11:58.702Z,26.70
2023-12-15T04:15:09.839Z,28.97
2023-12-15T04:18:25.757Z,25.75
2023-12-15T04:21:49.588Z,26.65
2023-12-15T04:25:15.323Z,30.27
2023-12-15T04:28:28.707Z,22.73
2023-12-15T04:31:44.574Z,24.30
2023-12-15T04:35:11.564Z,25.95
2023-12-15T04:38:21.222Z,23.45
2023-12-15T04:41:44.664Z,26.23
2023-12-15T04:45:18.489Z,21.60
2023-12-15T04:48:47.307Z,23.00
2023-12-15T04:51:50.695Z,20.42
2023-12-15T04:55:13.498Z,22.27
2023-12-15T04:58:38.148Z,22.98
2023-12-15T05:02:15.586Z,19.53
2023-12-15T05:05:44.267Z,24.57
2023-12-15T05:08:58.405Z,24.48
2023-12-15T05:12:09.949Z,20.27
2023-12-15T05:15:21.669Z,21.85
2023-12-15T05:18:32.045Z,21.63
2023-12-15T05:21:42.950Z,23.13
2023-12-15T05:24:58.716Z,18.52
2023-12-15T05:28:05.075Z,21.15
2023-12-15T05:31:10.916Z,19.55
2023-12-15T05:34:17.828Z,18.50
2023-12-15T05:37:50.266Z,16.63
2023-12-15T05:41:00.438Z,17.90
2023-12-15T05:44:10.379Z,17.27
2023-12-15T05:47:30.558Z,17.50
2023-12-15T05:51:01.512Z,18.07
2023-12-15T05:54:29.271Z,17.27
2023-12-15T05:57:52.464Z,18.42
2023-12-15T06:01:12.239Z,18.55
2023-12-15T06:04:36.363Z,16.20
2023-12-15T06:07:53.536Z,17.37
2023-12-15T06:11:07.211Z,17.40
2023-12-15T06:14:33.319Z,20.85
2023-12-15T06:17:53.589Z,16.73
2023-12-15T06:21:29.656Z,17.95
2023-12-15T06:24:43.005Z,15.50
2023-12-15T06:27:54.846Z,14.43
2023-12-15T06:31:13.349Z,15.02
2023-12-15T06:34:30.839Z,14.10
2023-12-15T06:38:11.627Z,15.88
2023-12-15T06:41:20.166Z,15.07
2023-12-15T06:44:40.449Z,13.87
2023-12-15T06:48:10.446Z,17.05
2023-12-15T06:52:25.905Z,14.20
2023-12-15T06:56:23.041Z,12.35
2023-12-15T07:00:29.286Z,12.83
2023-12-15T07:03:48.731Z,13.27
2023-12-15T07:07:05.454Z,12.73
2023-12-15T07:10:19.746Z,13.88
2023-12-15T07:13:34.617Z,13.20
2023-12-15T07:16:40.224Z,14.43
2023-12-15T07:20:00.403Z,15.27
2023-12-15T07:23:17.557Z,11.60
2023-12-15T07:26:33.448Z,11.40
2023-12-15T07:29:53.724Z,10.10
2023-12-15T07:33:11.628Z,10.47
2023-12-15T07:36:22.542Z,11.27
2023-12-15T07:39:50.541Z,11.43
2023-12-15T07:43:14.358Z,10.48
2023-12-15T07:47:09.697Z,10.20
2023-12-15T07:50:39.163Z,11.83
2023-12-15T07:53:53.081Z,11.20
2023-12-15T07:57:15.889Z,9.98
2023-12-15T08:00:22.499Z,10.95
2023-12-15T08:04:11.677Z,9.05
2023-12-15T08:08:02.035Z,11.20
2023-12-15T08:11:16.510Z,11.70
2023-12-15T08:14:29.041Z,10.20
2023-12-15T08:17:40.435Z,10.48
2023-12-15T08:20:58.255Z,13.32
2023-12-15T08:24:22.960Z,11.20
2023-12-15T08:27:43.509Z,9.70
2023-12-15T08:31:11.795Z,8.85
2023-12-15T08:34:39.265Z,12.15
2023-12-15T08:37:51.537Z,13.35
2023-12-15T08:40:57.589Z,10.23
2023-12-15T08:44:19.298Z,10.37
2023-12-15T08:47:39.539Z,12.05
2023-12-15T08:51:11.294Z,9.38
2023-12-15T08:54:51.165Z,9.80
2023-12-15T08:58:32.368Z,10.97
2023-12-15T09:01:42.834Z,12.13
2023-12-15T09:04:59.649Z,13.27
2023-12-15T09:08:09.802Z,13.43
2023-12-15T09:11:24.465Z,10.68
2023-12-15T09:14:32.091Z,10.47
2023-12-15T09:17:53.915Z,13.27
2023-12-15T09:21:02.166Z,10.65
2023-12-15T09:24:16.175Z,12.05
2023-12-15T09:27:32.150Z,14.25
2023-12-15T09:30:39.885Z,12.07
2023-12-15T09:33:54.599Z,14.57
2023-12-15T09:37:18.062Z,13.27
2023-12-15T09:41:13.651Z,14.25
2023-12-15T09:45:03.836Z,16.85
2023-12-15T09:48:19.605Z,18.10
2023-12-15T09:51:31.740Z,12.10
2023-12-15T09:54:39.862Z,13.80
2023-12-15T09:58:07.274Z,17.08
2023-12-15T10:01:26.889Z,13.60
2023-12-15T10:04:52.253Z,10.57
2023-12-15T10:11:50.443Z,12.95
2023-12-15T10:15:03.434Z,11.23
2023-12-15T10:18:19.289Z,12.18
2023-12-15T10:21:37.928Z,12.27
2023-12-15T10:24:45.731Z,13.03
2023-12-15T10:27:53.541Z,13.07
2023-12-15T10:31:14.934Z,15.13
2023-12-15T10:34:59.872Z,11.00
2023-12-15T10:38:26.699Z,13.67
2023-12-15T10:42:54.170Z,13.37
2023-12-15T10:46:25.826Z,13.55
2023-12-15T10:49:40.703Z,12.18
2023-12-15T10:53:13.172Z,14.32
2023-12-15T10:56:50.268Z,12.07
2023-12-15T11:00:16.470Z,12.90
2023-12-15T11:03:27.566Z,13.75
2023-12-15T11:06:44.797Z,11.35
2023-12-15T11:10:04.754Z,11.40
2023-12-15T11:13:54.859Z,16.67
2023-12-15T11:17:10.922Z,11.07
2023-12-15T13:39:38.917Z,12.63
2023-12-15T13:43:47.016Z,11.40
2023-12-15T13:46:55.518Z,11.13
2023-12-15T13:50:07.479Z,12.05
2023-12-15T13:53:41.379Z,19.20
2023-12-15T13:57:57.051Z,14.00
2023-12-15T14:02:24.924Z,13.87
2023-12-15T14:06:40.171Z,12.65
2023-12-15T14:09:59.054Z,10.60
2023-12-15T14:13:06.939Z,14.07
2023-12-15T14:16:40.938Z,11.80
2023-12-15T14:19:51.606Z,11.00
2023-12-15T14:23:09.058Z,10.43
2023-12-15T14:26:47.880Z,11.57
2023-12-15T14:30:16.991Z,11.35
2023-12-15T14:33:27.060Z,10.73
2023-12-15T14:36:45.069Z,9.93
2023-12-15T14:39:49.736Z,12.23
2023-12-15T14:42:59.968Z,12.32
2023-12-15T14:46:07.569Z,12.10
2023-12-15T14:49:14.210Z,9.80
2023-12-15T14:52:30.782Z,10.93
2023-12-15T14:55:53.937Z,11.02
2023-12-15T14:59:25.872Z,11.85
2023-12-15T15:02:37.252Z,8.73
2023-12-15T15:05:45.279Z,8.50
2023-12-15T15:09:17.878Z,11.80
2023-12-15T15:12:42.745Z,9.45
2023-12-15T15:16:17.627Z,10.77
2023-12-15T15:19:21.185Z,10.65
2023-12-15T15:22:43.894Z,11.00
2023-12-15T15:25:47.929Z,6.50
2023-12-15T15:28:57.923Z,6.32
2023-12-15T15:32:04.764Z,5.78
2023-12-15T15:35:18.242Z,6.45
2023-12-15T15:38:24.802Z,9.60
2023-12-15T15:41:39.949Z,11.03
2023-12-15T15:44:43.051Z,8.68
2023-12-15T15:51:37.970Z,10.13
2023-12-15T15:55:00.960Z,7.93
2023-12-15T15:58:17.798Z,7.80
2023-12-15T16:01:43.900Z,10.13
2023-12-15T16:05:15.726Z,9.85
2023-12-15T16:08:40.067Z,11.60
2023-12-15T16:11:58.622Z,12.50
2023-12-15T16:15:22.788Z,10.83
2023-12-15T16:18:46.970Z,9.48
2023-12-15T16:22:09.850Z,12.32
2023-12-15T16:25:31.994Z,11.02
2023-12-15T16:28:52.228Z,9.37
2023-12-15T16:32:15.838Z,11.27
2023-12-15T16:35:35.918Z,14.40
2023-12-15T16:38:59.641Z,11.93
2023-12-15T16:42:21.035Z,11.65
2023-12-15T16:45:43.729Z,11.57
2023-12-15T16:49:05.861Z,16.67
2023-12-15T16:52:28.728Z,14.32
2023-12-15T16:55:55.060Z,10.25
2023-12-15T16:59:14.774Z,10.25
2023-12-15T17:02:37.704Z,9.07
2023-12-15T17:06:07.660Z,13.07
2023-12-15T17:09:21.010Z,12.32
2023-12-15T17:12:43.777Z,12.82
2023-12-15T17:16:03.841Z,13.02
2023-12-15T17:19:20.017Z,9.70
2023-12-15T17:22:39.647Z,8.27
2023-12-15T17:26:08.660Z,13.50
2023-12-15T17:29:39.661Z,10.00
2023-12-15T17:32:57.727Z,10.18
2023-12-15T17:36:11.996Z,12.30
2023-12-15T17:39:32.665Z,11.07
2023-12-15T17:42:36.090Z,8.70
2023-12-15T17:45:44.283Z,8.95
2023-12-15T17:49:01.617Z,9.95
2023-12-15T17:52:31.473Z,6.03
2023-12-15T17:55:47.560Z,7.37
2023-12-15T17:59:12.981Z,7.07
2023-12-15T18:02:32.727Z,11.90
2023-12-15T18:05:54.536Z,5.82
2023-12-15T18:09:12.183Z,5.00
2023-12-15T18:12:36.689Z,7.53
2023-12-15T18:16:00.619Z,6.70
2023-12-15T18:19:22.513Z,8.75
2023-12-15T18:22:42.264Z,10.65
2023-12-15T18:25:58.479Z,7.67
2023-12-15T18:29:23.557Z,9.07
2023-12-15T18:32:46.459Z,7.82
2023-12-15T18:36:07.536Z,9.23
2023-12-15T18:39:31.369Z,10.57
2023-12-15T18:42:53.542Z,8.47
2023-12-15T18:45:57.153Z,9.80
2023-12-15T18:49:01.485Z,10.38
2023-12-15T18:52:20.141Z,11.50
2023-12-15T18:55:30.194Z,13.30
2023-12-15T18:58:46.935Z,10.20
2023-12-15T19:02:03.668Z,9.17
2023-12-15T19:05:19.982Z,8.30
2023-12-15T19:08:50.449Z,8.90
2023-12-15T19:12:12.966Z,9.65
2023-12-15T19:15:36.293Z,12.03
2023-12-15T19:19:03.243Z,9.37
2023-12-15T19:22:22.250Z,7.57
2023-12-15T19:25:47.195Z,8.35
2023-12-15T19:29:11.936Z,9.63
2023-12-15T19:32:28.728Z,9.83
2023-12-15T19:35:50.277Z,10.10
2023-12-15T19:39:17.316Z,11.27
2023-12-15T19:42:45.216Z,10.43
2023-12-15T19:46:01.476Z,12.93
2023-12-15T19:49:20.413Z,11.70
2023-12-15T19:52:54.813Z,16.00
2023-12-15T19:56:12.018Z,12.57
2023-12-15T19:59:23.717Z,10.25
2023-12-15T20:02:34.595Z,9.98
2023-12-15T20:05:50.743Z,13.30
2023-12-15T20:09:20.157Z,13.00
2023-12-15T20:12:46.041Z,14.88
2023-12-15T20:15:53.010Z,13.23
2023-12-15T20:19:08.134Z,15.07
2023-12-15T20:22:19.851Z,11.80
2023-12-15T20:25:30.793Z,15.60
2023-12-15T20:28:47.129Z,12.88
2023-12-15T20:32:10.994Z,13.52
2023-12-15T20:35:27.370Z,12.85
2023-12-15T20:38:58.661Z,13.97
2023-12-15T20:42:20.537Z,14.67
2023-12-15T20:45:24.102Z,13.45
2023-12-15T20:48:30.720Z,16.80
2023-12-15T20:51:34.668Z,13.50
2023-12-15T20:55:02.088Z,18.73
2023-12-15T20:58:19.134Z,14.53
2023-12-15T21:01:41.258Z,17.33
2023-12-15T21:05:00.266Z,15.18
2023-12-15T21:08:26.105Z,13.05
2023-12-15T21:11:44.197Z,14.03
2023-12-15T21:15:08.040Z,15.87
2023-12-15T21:18:30.390Z,17.98
2023-12-15T21:21:51.236Z,17.38
2023-12-15T21:25:11.053Z,15.68
2023-12-15T21:28:31.198Z,13.77
2023-12-15T21:31:47.168Z,12.23
2023-12-15T21:35:06.961Z,14.10
2023-12-15T21:38:27.046Z,15.68
2023-12-15T21:41:47.031Z,13.52
2023-12-15T21:45:16.977Z,13.27
2023-12-15T21:48:21.663Z,14.87
2023-12-15T21:51:33.252Z,14.80
2023-12-15T21:54:42.838Z,15.77
2023-12-15T21:57:52.818Z,18.92
2023-12-15T22:01:02.753Z,20.60
2023-12-15T22:04:28.911Z,19.57
2023-12-15T22:08:04.808Z,19.13
2023-12-15T22:11:31.413Z,18.50
2023-12-15T22:14:52.677Z,17.08
2023-12-15T22:18:12.665Z,18.53
2023-12-15T22:21:29.593Z,19.40
2023-12-15T22:24:48.186Z,20.05
2023-12-15T22:28:05.521Z,17.02
2023-12-15T22:31:09.790Z,18.73
2023-12-15T22:34:21.520Z,18.50
2023-12-15T22:37:33.409Z,18.13
2023-12-15T22:40:39.801Z,16.02
2023-12-15T22:43:53.062Z,17.55
2023-12-15T22:47:04.511Z,17.05
2023-12-15T22:50:08.677Z,17.03
2023-12-15T22:53:31.810Z,18.33
2023-12-15T22:56:51.833Z,18.98
2023-12-15T23:00:16.681Z,20.48
2023-12-15T23:03:37.703Z,20.48
2023-12-15T23:07:01.894Z,21.43
2023-12-15T23:10:16.961Z,22.93
2023-12-15T23:13:38.689Z,20.90
2023-12-15T23:16:42.168Z,19.48
2023-12-15T23:19:59.837Z,14.75
2023-12-15T23:23:04.635Z,18.73
2023-12-15T23:26:15.374Z,19.20
2023-12-15T23:29:39.256Z,17.70
2023-12-15T23:32:49.568Z,14.43
2023-12-15T23:35:53.822Z,19.38
2023-12-15T23:39:04.850Z,18.20
2023-12-15T23:42:20.973Z,17.23
2023-12-15T23:45:39.281Z,19.38
2023-12-15T23:48:49.385Z,16.27
2023-12-15T23:51:53.584Z,15.90
2023-12-15T23:55:03.236Z,15.40
2023-12-15T23:58:23.874Z,13.80
